createdAt,value
2023-02-03T00:00:11.361Z,9.7
2023-02-03T00:01:21.525Z,10
2023-02-03T00:02:31.688Z,10.3
2023-02-03T00:03:41.845Z,10.1
2023-02-03T00:04:52.014Z,10.8
2023-02-03T00:06:02.176Z,10.3
2023-02-03T00:07:12.335Z,11.1
2023-02-03T00:08:22.504Z,11
2023-02-03T00:09:32.668Z,10.1
2023-02-03T00:10:42.832Z,10.2
2023-02-03T00:11:52.991Z,10.1
2023-02-03T00:13:03.157Z,11.2
2023-02-03T00:14:13.323Z,10.9
2023-02-03T00:15:23.483Z,10.8
2023-02-03T00:16:33.645Z,11.3
2023-02-03T00:17:43.805Z,11.9
2023-02-03T00:18:53.974Z,11
2023-02-03T00:20:04.132Z,11.4
2023-02-03T00:21:14.295Z,11.6
2023-02-03T00:22:24.464Z,11.5
2023-02-03T00:23:34.626Z,11.1
2023-02-03T00:24:44.784Z,11.7
2023-02-03T00:25:55.036Z,11.5
2023-02-03T00:27:05.286Z,11.3
2023-02-03T00:28:15.526Z,11.7
2023-02-03T00:29:25.779Z,12.6
2023-02-03T00:30:36.017Z,12.4
2023-02-03T00:31:46.266Z,13.4
2023-02-03T00:32:56.509Z,13
2023-02-03T00:34:06.753Z,14.8
2023-02-03T00:35:17.000Z,14.1
2023-02-03T00:36:27.248Z,14.3
2023-02-03T00:37:37.498Z,14.3
2023-02-03T00:38:47.742Z,16.1
2023-02-03T00:39:57.989Z,15.5
2023-02-03T00:41:08.423Z,15.8
2023-02-03T00:42:18.858Z,16.1
2023-02-03T00:43:29.287Z,15.8
2023-02-03T00:44:39.717Z,15.8
2023-02-03T00:45:50.145Z,16.9
2023-02-03T00:47:00.575Z,18.3
2023-02-03T00:48:11.015Z,17.8
2023-02-03T00:49:21.444Z,19.2
2023-02-03T00:50:31.874Z,19.2
2023-02-03T00:51:42.302Z,20.2
2023-02-03T00:52:52.730Z,19.5
2023-02-03T00:54:03.168Z,20.9
2023-02-03T00:55:13.593Z,20.2
2023-02-03T00:57:53.381Z,20.2
2023-02-03T00:59:07.514Z,21.3
2023-02-03T01:00:21.644Z,20.6
2023-02-03T01:01:32.438Z,22.4
2023-02-03T01:02:43.243Z,21.5
2023-02-03T01:03:57.368Z,19.7
2023-02-03T01:05:11.498Z,20.3
2023-02-03T01:06:25.632Z,21
2023-02-03T01:07:39.757Z,20.9
2023-02-03T01:08:53.888Z,19.3
2023-02-03T01:10:08.018Z,19.5
2023-02-03T01:11:22.138Z,16.9
2023-02-03T01:12:36.269Z,17.6
2023-02-03T01:13:58.666Z,16
2023-02-03T01:16:18.021Z,15.3
2023-02-03T01:17:28.183Z,14.3
2023-02-03T01:18:38.345Z,14.5
2023-02-03T01:19:48.510Z,13.8
2023-02-03T01:20:58.674Z,13.1
2023-02-03T01:22:08.834Z,12.3
2023-02-03T01:23:18.998Z,11.8
2023-02-03T01:24:29.163Z,12.9
2023-02-03T01:25:39.321Z,11.8
2023-02-03T01:26:49.483Z,11.8
2023-02-03T01:29:09.815Z,9.5
2023-02-03T01:30:19.972Z,10.6
2023-02-03T01:31:30.138Z,9.9
2023-02-03T01:32:40.307Z,10.6
2023-02-03T01:33:50.464Z,11.1
2023-02-03T01:35:00.624Z,10
2023-02-03T01:36:10.795Z,10.4
2023-02-03T01:37:20.959Z,9.5
2023-02-03T01:38:31.122Z,9
2023-02-03T01:39:41.282Z,8.3
2023-02-03T01:40:51.440Z,8.6
2023-02-03T01:42:01.603Z,7.9
2023-02-03T01:43:11.775Z,8.3
2023-02-03T01:44:21.934Z,7.7
2023-02-03T01:45:32.187Z,7.2
2023-02-03T01:46:42.435Z,7.3
2023-02-03T01:47:52.676Z,7.8
2023-02-03T01:49:02.925Z,7.4
2023-02-03T01:50:13.171Z,7.4
2023-02-03T01:51:23.408Z,7.3
2023-02-03T01:52:33.653Z,6.5
2023-02-03T01:53:43.901Z,6.6
2023-02-03T01:54:54.149Z,6.3
2023-02-03T01:56:04.391Z,7
2023-02-03T01:57:14.643Z,5.8
2023-02-03T01:58:24.885Z,7.1
2023-02-03T01:59:35.128Z,5.7
2023-02-03T02:00:45.572Z,6.3
2023-02-03T02:01:55.994Z,4.8
2023-02-03T02:03:06.427Z,5.3
2023-02-03T02:04:16.860Z,5.3
2023-02-03T02:05:27.291Z,5.7
2023-02-03T02:06:37.723Z,5.4
2023-02-03T02:07:48.157Z,5
2023-02-03T02:08:58.583Z,5.7
2023-02-03T02:10:09.011Z,5.2
2023-02-03T02:12:29.876Z,5.3
2023-02-03T02:13:40.302Z,4.7
2023-02-03T02:14:50.738Z,4.6
2023-02-03T02:17:29.126Z,4.7
2023-02-03T02:18:43.250Z,4.5
2023-02-03T02:19:57.384Z,4.9
2023-02-03T02:21:08.180Z,5
2023-02-03T02:22:18.984Z,4.4
2023-02-03T02:23:33.113Z,4.5
2023-02-03T02:24:47.240Z,4.9
2023-02-03T02:26:01.364Z,4.4
2023-02-03T02:27:15.492Z,4.8
2023-02-03T02:28:29.622Z,4.7
2023-02-03T02:29:43.748Z,4.6
2023-02-03T02:30:57.884Z,4.2
2023-02-03T02:32:12.006Z,4.5
2023-02-03T02:33:34.405Z,4.1
2023-02-03T02:35:53.758Z,4.8
2023-02-03T02:37:03.916Z,3.9
2023-02-03T02:38:14.083Z,3.5
2023-02-03T02:39:24.240Z,3.8
2023-02-03T02:40:34.404Z,3.9
2023-02-03T02:41:44.572Z,4.6
2023-02-03T02:42:54.729Z,4.3
2023-02-03T02:44:04.891Z,4.2
2023-02-03T02:45:15.063Z,4.5
2023-02-03T02:46:25.223Z,4.4
2023-02-03T02:47:35.385Z,4.7
2023-02-03T02:48:45.545Z,4.2
2023-02-03T02:49:55.712Z,4.4
2023-02-03T02:51:05.877Z,4.1
2023-02-03T02:52:16.036Z,4
2023-02-03T02:53:26.206Z,4.4
2023-02-03T02:54:36.369Z,4.5
2023-02-03T02:55:46.528Z,4.4
2023-02-03T02:56:56.695Z,4
2023-02-03T02:58:06.851Z,4.2
2023-02-03T02:59:17.021Z,4.7
2023-02-03T03:00:27.177Z,4.2
2023-02-03T03:01:37.345Z,4.2
2023-02-03T03:02:47.507Z,4.7
2023-02-03T03:03:57.670Z,4.5
2023-02-03T03:05:07.920Z,4.6
2023-02-03T03:06:18.164Z,4.3
2023-02-03T03:07:28.412Z,5
2023-02-03T03:08:38.650Z,4.3
2023-02-03T03:09:48.902Z,4.5
2023-02-03T03:10:59.141Z,4.3
2023-02-03T03:12:09.388Z,4
2023-02-03T03:13:19.632Z,3.8
2023-02-03T03:14:29.881Z,3.9
2023-02-03T03:15:40.126Z,3.9
2023-02-03T03:16:50.376Z,4.1
2023-02-03T03:18:00.621Z,4.1
2023-02-03T03:19:10.863Z,4.6
2023-02-03T03:20:21.303Z,3.6
2023-02-03T03:21:31.735Z,3.7
2023-02-03T03:22:42.158Z,4.5
2023-02-03T03:23:52.591Z,4.2
2023-02-03T03:25:03.021Z,4.4
2023-02-03T03:26:13.450Z,3.9
2023-02-03T03:27:23.881Z,3.5
2023-02-03T03:28:34.317Z,4.5
2023-02-03T03:29:44.749Z,4.2
2023-02-03T03:30:55.181Z,3.9
2023-02-03T03:32:05.610Z,4.2
2023-02-03T03:33:16.036Z,4.4
2023-02-03T03:34:26.473Z,4.3
2023-02-03T03:37:05.577Z,4.7
2023-02-03T03:38:19.710Z,4.3
2023-02-03T03:39:33.837Z,4.9
2023-02-03T03:40:44.638Z,4.1
2023-02-03T03:41:55.442Z,5.8
2023-02-03T03:43:09.572Z,5.1
2023-02-03T03:44:23.694Z,4.7
2023-02-03T03:45:37.829Z,4.4
2023-02-03T03:46:51.955Z,5.6
2023-02-03T03:48:06.080Z,5.4
2023-02-03T03:49:20.211Z,5.1
2023-02-03T03:50:34.342Z,5.8
2023-02-03T03:51:48.468Z,5.3
2023-02-03T03:53:10.863Z,6.7
2023-02-03T03:55:30.212Z,6.3
2023-02-03T03:56:40.375Z,5.4
2023-02-03T03:57:50.536Z,5.1
2023-02-03T03:59:00.700Z,5.2
2023-02-03T04:00:10.865Z,5.3
2023-02-03T04:01:21.029Z,5.1
2023-02-03T04:02:31.191Z,6
2023-02-03T04:03:41.353Z,5.8
2023-02-03T04:04:51.514Z,5.2
2023-02-03T04:06:01.680Z,5
2023-02-03T04:07:11.847Z,5.8
2023-02-03T04:08:22.007Z,5.6
2023-02-03T04:09:32.173Z,5.9
2023-02-03T04:10:42.331Z,5
2023-02-03T04:11:52.491Z,6.5
2023-02-03T04:13:02.663Z,6.7
2023-02-03T04:14:12.817Z,7
2023-02-03T04:15:22.981Z,6.9
2023-02-03T04:16:33.149Z,6.8
2023-02-03T04:17:43.307Z,6.5
2023-02-03T04:18:53.475Z,7.1
2023-02-03T04:20:03.641Z,6.7
2023-02-03T04:21:13.796Z,6.9
2023-02-03T04:22:23.958Z,7.3
2023-02-03T04:23:34.124Z,8.2
2023-02-03T04:24:44.376Z,7
2023-02-03T04:25:54.618Z,6.7
2023-02-03T04:27:04.862Z,7
2023-02-03T04:28:15.107Z,6.5
2023-02-03T04:29:25.361Z,6.6
2023-02-03T04:30:35.600Z,7.7
2023-02-03T04:31:45.849Z,6.5
2023-02-03T04:32:56.097Z,7.1
2023-02-03T04:34:06.342Z,7
2023-02-03T04:35:16.587Z,8.1
2023-02-03T04:36:26.835Z,7.5
2023-02-03T04:37:37.075Z,7.4
2023-02-03T04:38:47.323Z,6.6
2023-02-03T04:39:57.761Z,7.7
2023-02-03T04:41:08.193Z,7.6
2023-02-03T04:42:18.618Z,7.1
2023-02-03T04:43:29.050Z,7.7
2023-02-03T04:44:39.480Z,7.2
2023-02-03T04:45:49.908Z,7.5
2023-02-03T04:47:00.342Z,7.8
2023-02-03T04:48:10.777Z,7.4
2023-02-03T04:49:21.204Z,7.3
2023-02-03T04:50:31.638Z,7.5
2023-02-03T04:51:42.068Z,6.9
2023-02-03T04:52:52.499Z,7.2
2023-02-03T04:54:02.927Z,7.2
2023-02-03T04:56:41.264Z,6.2
2023-02-03T04:57:55.387Z,6.8
2023-02-03T04:59:09.515Z,6
2023-02-03T05:00:20.315Z,6.6
2023-02-03T05:01:31.119Z,6.8
2023-02-03T05:02:45.249Z,6.1
2023-02-03T05:03:59.377Z,7.1
2023-02-03T05:05:13.501Z,7.7
2023-02-03T05:06:27.633Z,7.5
2023-02-03T05:07:41.764Z,7.3
2023-02-03T05:08:55.889Z,7.1
2023-02-03T05:10:10.019Z,7.2
2023-02-03T05:11:24.150Z,7.6
2023-02-03T05:12:46.538Z,7.5
2023-02-03T05:15:07.284Z,7.1
2023-02-03T05:17:34.091Z,7.3
2023-02-03T05:18:44.216Z,7.3
2023-02-03T05:19:54.326Z,6.8
2023-02-03T05:21:04.443Z,6.8
2023-02-03T05:22:14.559Z,6.9
2023-02-03T05:23:24.674Z,7.3
2023-02-03T05:24:34.792Z,7.5
2023-02-03T05:25:44.910Z,7.3
2023-02-03T05:26:55.032Z,7
2023-02-03T05:28:05.148Z,8.1
2023-02-03T05:29:15.264Z,6.1
2023-02-03T05:30:25.373Z,6.9
2023-02-03T05:31:35.496Z,7.1
2023-02-03T05:32:45.615Z,6.5
2023-02-03T05:33:55.723Z,8.8
2023-02-03T05:35:05.847Z,8.9
2023-02-03T05:36:15.956Z,7.8
2023-02-03T05:37:26.077Z,6.5
2023-02-03T05:38:36.197Z,7.2
2023-02-03T05:39:46.314Z,7.2
2023-02-03T05:40:56.429Z,7.6
2023-02-03T05:42:06.542Z,6.9
2023-02-03T05:43:16.656Z,8.2
2023-02-03T05:44:26.773Z,8.6
2023-02-03T05:45:36.889Z,7.8
2023-02-03T05:46:47.063Z,6.9
2023-02-03T05:47:57.222Z,7.8
2023-02-03T05:49:07.386Z,8
2023-02-03T05:50:17.552Z,8
2023-02-03T05:51:27.714Z,7.4
2023-02-03T05:52:37.868Z,7.6
2023-02-03T05:53:48.039Z,7.5
2023-02-03T05:54:58.195Z,7.7
2023-02-03T05:56:08.363Z,6.6
2023-02-03T05:57:18.524Z,5.9
2023-02-03T05:58:28.685Z,7.2
2023-02-03T05:59:38.851Z,7.3
2023-02-03T06:00:49.013Z,7.3
2023-02-03T06:01:59.265Z,7.3
2023-02-03T06:03:09.503Z,7.7
2023-02-03T06:04:19.752Z,7.5
2023-02-03T06:05:30.005Z,10.1
2023-02-03T06:06:40.249Z,7.1
2023-02-03T06:07:50.487Z,7.8
2023-02-03T06:09:00.733Z,9.1
2023-02-03T06:10:10.977Z,7.5
2023-02-03T06:11:21.232Z,7.2
2023-02-03T06:12:31.470Z,6.7
2023-02-03T06:13:41.720Z,8.3
2023-02-03T06:14:51.961Z,7.8
2023-02-03T06:16:02.206Z,7.6
2023-02-03T06:17:12.646Z,6.4
2023-02-03T06:18:49.189Z,7.3
2023-02-03T06:19:59.621Z,6.9
2023-02-03T06:21:10.051Z,8.1
2023-02-03T06:22:20.482Z,7.2
2023-02-03T06:23:30.913Z,8
2023-02-03T06:24:41.339Z,8.9
2023-02-03T06:25:51.773Z,8.9
2023-02-03T06:27:02.203Z,8.6
2023-02-03T06:28:12.635Z,8.3
2023-02-03T06:29:23.067Z,9.8
2023-02-03T06:30:33.491Z,7.9
2023-02-03T06:31:43.928Z,8
2023-02-03T06:34:23.949Z,8
2023-02-03T06:35:38.082Z,8.3
2023-02-03T06:36:52.206Z,8.3
2023-02-03T06:38:03.012Z,9
2023-02-03T06:39:13.814Z,9.1
2023-02-03T06:40:27.942Z,8.3
2023-02-03T06:41:42.068Z,8.6
2023-02-03T06:42:56.194Z,9.6
2023-02-03T06:44:10.321Z,8.7
2023-02-03T06:45:24.452Z,8.9
2023-02-03T06:46:38.577Z,9.3
2023-02-03T06:47:52.709Z,9.4
2023-02-03T06:49:06.836Z,9.3
2023-02-03T06:50:29.232Z,9.1
2023-02-03T06:52:49.982Z,9.8
2023-02-03T06:55:18.230Z,8.6
2023-02-03T06:57:46.492Z,9.6
2023-02-03T07:00:14.743Z,9.3
2023-02-03T07:02:41.610Z,9.1
2023-02-03T07:03:51.769Z,8
2023-02-03T07:05:01.929Z,8
2023-02-03T07:06:12.095Z,8.3
2023-02-03T07:07:22.260Z,7.8
2023-02-03T07:08:32.420Z,7.8
2023-02-03T07:09:42.586Z,9.2
2023-02-03T07:10:52.750Z,9
2023-02-03T07:12:02.907Z,7.3
2023-02-03T07:13:13.071Z,6.6
2023-02-03T07:14:23.239Z,6.4
2023-02-03T07:15:33.395Z,7.5
2023-02-03T07:16:43.557Z,6.6
2023-02-03T07:17:53.722Z,7.2
2023-02-03T07:19:03.891Z,6.9
2023-02-03T07:20:14.053Z,6.9
2023-02-03T07:21:24.211Z,6.4
2023-02-03T07:22:34.372Z,6.2
2023-02-03T07:23:44.535Z,6.9
2023-02-03T07:24:54.703Z,7.2
2023-02-03T07:26:04.864Z,7.4
2023-02-03T07:27:15.031Z,7
2023-02-03T07:28:25.191Z,7.1
2023-02-03T07:29:35.349Z,7.5
2023-02-03T07:30:45.513Z,6.6
2023-02-03T07:31:55.769Z,6.7
2023-02-03T07:33:06.017Z,7.3
2023-02-03T07:34:16.256Z,7.5
2023-02-03T07:35:26.502Z,6.8
2023-02-03T07:36:36.752Z,7.5
2023-02-03T07:37:46.994Z,6.9
2023-02-03T07:38:57.242Z,8.3
2023-02-03T07:40:07.488Z,8.5
2023-02-03T07:41:17.734Z,9
2023-02-03T07:42:27.977Z,7.7
2023-02-03T07:43:38.224Z,4.9
2023-02-03T07:44:48.462Z,5.5
2023-02-03T07:45:58.715Z,5.5
2023-02-03T07:47:09.148Z,6.3
2023-02-03T07:48:19.574Z,6.1
2023-02-03T07:49:30.004Z,5.2
2023-02-03T07:50:40.436Z,4.9
2023-02-03T07:51:50.867Z,5.8
2023-02-03T07:53:01.305Z,4.9
2023-02-03T07:54:11.733Z,5.7
2023-02-03T07:55:22.163Z,5.1
2023-02-03T07:56:32.589Z,4.5
2023-02-03T07:57:43.029Z,4.9
2023-02-03T07:58:53.459Z,5
2023-02-03T08:00:03.883Z,4.2
2023-02-03T08:01:14.317Z,5.7
2023-02-03T08:03:52.979Z,5.9
2023-02-03T08:05:07.110Z,7.3
2023-02-03T08:06:21.232Z,8
2023-02-03T08:07:32.042Z,8.9
2023-02-03T08:08:42.841Z,8.9
2023-02-03T08:09:56.970Z,8.9
2023-02-03T08:11:11.094Z,8.1
2023-02-03T08:12:25.220Z,8.4
2023-02-03T08:13:39.353Z,8.5
2023-02-03T08:14:53.483Z,7
2023-02-03T08:16:07.609Z,7.5
2023-02-03T08:17:21.737Z,7.2
2023-02-03T08:18:35.862Z,6.9
2023-02-03T08:19:58.260Z,7.1
2023-02-03T08:22:19.011Z,7.2
2023-02-03T08:24:45.869Z,6.6
2023-02-03T08:25:56.034Z,7.1
2023-02-03T08:27:06.195Z,8.6
2023-02-03T08:28:16.357Z,9
2023-02-03T08:29:26.522Z,8.5
2023-02-03T08:30:36.685Z,8.8
2023-02-03T08:31:46.843Z,8.5
2023-02-03T08:32:57.005Z,9.2
2023-02-03T08:34:07.175Z,10.2
2023-02-03T08:35:17.333Z,8.8
2023-02-03T08:36:27.500Z,9.5
2023-02-03T08:37:37.661Z,9.9
2023-02-03T08:38:47.829Z,9.5
2023-02-03T08:39:57.994Z,10.3
2023-02-03T08:41:08.155Z,9.9
2023-02-03T08:42:18.319Z,9.8
2023-02-03T08:43:28.481Z,9.9
2023-02-03T08:44:38.647Z,10.7
2023-02-03T08:45:48.809Z,9.9
2023-02-03T08:46:58.992Z,9.9
2023-02-03T08:48:09.133Z,10.6
2023-02-03T08:49:19.299Z,11.4
2023-02-03T08:50:29.459Z,10.9
2023-02-03T08:51:39.617Z,11.2
2023-02-03T08:52:49.782Z,10.4
2023-02-03T08:54:00.028Z,9.5
2023-02-03T08:55:10.278Z,11.1
2023-02-03T08:56:20.526Z,11
2023-02-03T08:58:41.010Z,11.4
2023-02-03T08:59:51.258Z,11
2023-02-03T09:01:01.508Z,10.8
2023-02-03T09:02:11.755Z,10.6
2023-02-03T09:03:21.992Z,11.5
2023-02-03T09:04:32.241Z,10.8
2023-02-03T09:05:42.491Z,11
2023-02-03T09:06:52.735Z,12.2
2023-02-03T09:08:02.978Z,9.9
2023-02-03T09:09:13.411Z,10.9
2023-02-03T09:10:23.844Z,12.3
2023-02-03T09:11:34.274Z,10.3
2023-02-03T09:12:44.704Z,12.8
2023-02-03T09:13:55.136Z,11.6
2023-02-03T09:15:05.566Z,11.4
2023-02-03T09:16:15.996Z,11.1
2023-02-03T09:17:26.429Z,12
2023-02-03T09:18:36.864Z,11.4
2023-02-03T09:19:47.295Z,11.3
2023-02-03T09:20:57.722Z,11.7
2023-02-03T09:22:08.149Z,11.7
2023-02-03T09:23:18.588Z,11.7
2023-02-03T09:25:57.582Z,12.7
2023-02-03T09:27:11.072Z,11.1
2023-02-03T09:28:21.232Z,12.6
2023-02-03T09:29:31.395Z,12.3
2023-02-03T09:30:41.565Z,11.9
2023-02-03T09:31:51.728Z,12.7
2023-02-03T09:33:01.891Z,12.2
2023-02-03T09:34:12.046Z,11.6
2023-02-03T09:35:22.214Z,11.4
2023-02-03T09:36:32.372Z,13.5
2023-02-03T09:37:42.537Z,12.6
2023-02-03T09:38:52.701Z,12.9
2023-02-03T09:40:02.869Z,12.9
2023-02-03T09:41:13.023Z,13.5
2023-02-03T09:43:33.349Z,13.5
2023-02-03T09:44:43.515Z,13.7
2023-02-03T09:45:53.679Z,13.1
2023-02-03T09:47:03.843Z,11.9
2023-02-03T09:48:14.010Z,12.5
2023-02-03T09:49:24.164Z,12.1
2023-02-03T09:50:34.336Z,13.3
2023-02-03T09:51:44.490Z,13.7
2023-02-03T09:52:54.659Z,14.1
2023-02-03T09:54:04.824Z,14
2023-02-03T09:55:14.987Z,12
2023-02-03T09:56:25.232Z,13.3
2023-02-03T09:57:35.482Z,13
2023-02-03T09:58:45.726Z,11.9
2023-02-03T09:59:55.966Z,13
2023-02-03T10:01:06.214Z,12.8
2023-02-03T10:02:16.456Z,12.7
2023-02-03T10:03:26.707Z,12.5
2023-02-03T10:04:36.951Z,12
2023-02-03T10:05:47.197Z,13
2023-02-03T10:06:57.443Z,12.8
2023-02-03T10:08:07.689Z,11.3
2023-02-03T10:09:17.935Z,13.4
2023-02-03T10:10:28.175Z,12.6
2023-02-03T10:11:38.618Z,13.3
2023-02-03T10:12:49.049Z,12.5
2023-02-03T10:13:59.479Z,12.9
2023-02-03T10:15:09.909Z,12.4
2023-02-03T10:16:20.336Z,13.5
2023-02-03T10:17:30.770Z,12.4
2023-02-03T10:18:41.198Z,14.3
2023-02-03T10:19:51.624Z,14.2
2023-02-03T10:21:02.056Z,13.2
2023-02-03T10:22:11.483Z,12.7
2023-02-03T10:23:21.606Z,12.6
2023-02-03T10:24:31.718Z,14.3
2023-02-03T10:25:41.838Z,14.1
2023-02-03T10:26:51.956Z,13.9
2023-02-03T10:28:02.068Z,14.7
2023-02-03T10:29:12.189Z,13.8
2023-02-03T10:30:22.306Z,14.4
2023-02-03T10:31:32.418Z,13.7
2023-02-03T10:32:42.538Z,13.5
2023-02-03T10:33:52.649Z,14.7
2023-02-03T10:35:02.766Z,12.9
2023-02-03T10:36:12.891Z,13.4
2023-02-03T10:37:22.999Z,13.5
2023-02-03T10:38:33.117Z,14.2
2023-02-03T10:39:43.238Z,12.9
2023-02-03T10:40:53.357Z,13.4
2023-02-03T10:42:03.469Z,13.4
2023-02-03T10:43:13.587Z,13.8
2023-02-03T10:44:23.706Z,13.1
2023-02-03T10:45:33.818Z,13.2
2023-02-03T10:46:43.935Z,13.3
2023-02-03T10:47:54.050Z,13.2
2023-02-03T10:49:04.172Z,13.6
2023-02-03T10:50:14.290Z,12.8
2023-02-03T10:51:24.450Z,12.4
2023-02-03T10:52:34.614Z,12.8
2023-02-03T10:53:44.778Z,12.4
2023-02-03T10:54:54.943Z,12
2023-02-03T10:56:05.102Z,11.7
2023-02-03T10:57:15.267Z,11.7
2023-02-03T10:58:25.431Z,12.9
2023-02-03T10:59:35.595Z,11.9
2023-02-03T11:00:45.758Z,12.1
2023-02-03T11:01:55.915Z,11.5
2023-02-03T11:03:06.080Z,12.9
2023-02-03T11:04:16.241Z,11.5
2023-02-03T11:05:26.406Z,11.9
2023-02-03T11:06:36.655Z,12.2
2023-02-03T11:07:46.899Z,12.3
2023-02-03T11:08:57.147Z,11.2
2023-02-03T11:10:07.386Z,12.1
2023-02-03T11:11:17.636Z,11
2023-02-03T11:12:27.878Z,10.8
2023-02-03T11:13:38.124Z,11.6
2023-02-03T11:14:48.370Z,11.6
2023-02-03T11:15:58.618Z,12
2023-02-03T11:17:08.859Z,10.8
2023-02-03T11:18:19.109Z,12.1
2023-02-03T11:19:29.349Z,11.7
2023-02-03T11:20:39.599Z,10.9
2023-02-03T11:21:50.033Z,11.3
2023-02-03T11:23:26.314Z,11.3
2023-02-03T11:24:36.475Z,11.5
2023-02-03T11:25:46.640Z,11.5
2023-02-03T11:26:56.797Z,11.3
2023-02-03T11:28:06.963Z,11
2023-02-03T11:29:17.128Z,10.4
2023-02-03T11:30:27.293Z,11.3
2023-02-03T11:31:37.449Z,11.4
2023-02-03T11:32:47.615Z,11
2023-02-03T11:33:57.775Z,11.3
2023-02-03T11:35:07.941Z,10.6
2023-02-03T11:36:18.106Z,11.6
2023-02-03T11:37:28.272Z,10.3
2023-02-03T11:38:38.432Z,10.5
2023-02-03T11:39:48.598Z,10.4
2023-02-03T11:40:58.759Z,10.7
2023-02-03T11:42:08.924Z,11.3
2023-02-03T11:43:19.087Z,10.8
2023-02-03T11:44:29.243Z,10.2
2023-02-03T11:45:39.415Z,11.5
2023-02-03T11:46:49.578Z,10.9
2023-02-03T11:47:59.740Z,10
2023-02-03T11:49:09.896Z,9.8
2023-02-03T11:50:20.067Z,9.9
2023-02-03T11:51:30.224Z,10.1
2023-02-03T11:52:40.476Z,11
2023-02-03T11:53:50.719Z,10.7
2023-02-03T11:55:00.965Z,11.2
2023-02-03T11:56:11.215Z,9.8
2023-02-03T11:57:21.457Z,9.9
2023-02-03T11:58:31.705Z,9.9
2023-02-03T11:59:41.949Z,9.7
2023-02-03T12:00:52.189Z,11.4
2023-02-03T12:02:02.436Z,10.4
2023-02-03T12:03:12.679Z,11.3
2023-02-03T12:04:22.928Z,10.8
2023-02-03T12:05:33.177Z,10.5
2023-02-03T12:06:43.417Z,11.3
2023-02-03T12:07:53.860Z,11.1
2023-02-03T12:10:13.395Z,9.4
2023-02-03T12:11:23.519Z,11
2023-02-03T12:12:33.636Z,10.7
2023-02-03T12:13:43.751Z,9.6
2023-02-03T12:14:53.862Z,10.7
2023-02-03T12:16:03.982Z,10.2
2023-02-03T12:17:14.096Z,9.9
2023-02-03T12:18:24.220Z,10.1
2023-02-03T12:19:34.335Z,9.2
2023-02-03T12:20:44.449Z,9.9
2023-02-03T12:21:54.570Z,10.7
2023-02-03T12:23:04.687Z,10.3
2023-02-03T12:24:14.799Z,9.6
2023-02-03T12:25:24.921Z,9.9
2023-02-03T12:26:35.037Z,10.6
2023-02-03T12:27:45.153Z,10.5
2023-02-03T12:28:55.267Z,9.8
2023-02-03T12:30:05.383Z,10.6
2023-02-03T12:31:15.495Z,9.2
2023-02-03T12:32:25.620Z,9.8
2023-02-03T12:33:35.737Z,9.8
2023-02-03T12:34:45.846Z,9.8
2023-02-03T12:35:55.962Z,9.1
2023-02-03T12:37:06.083Z,9.3
2023-02-03T12:38:16.251Z,9.6
2023-02-03T12:39:26.408Z,9.7
2023-02-03T12:40:36.573Z,9.5
2023-02-03T12:41:46.741Z,9.8
2023-02-03T12:42:56.895Z,9.7
2023-02-03T12:44:07.061Z,9.5
2023-02-03T12:45:17.225Z,9.5
2023-02-03T12:46:27.393Z,9.7
2023-02-03T12:47:37.551Z,10
2023-02-03T12:48:47.716Z,10.1
2023-02-03T12:49:57.876Z,10.4
2023-02-03T12:51:08.037Z,10
2023-02-03T12:52:18.201Z,9.7
2023-02-03T12:53:28.451Z,9.1
2023-02-03T12:54:38.695Z,9.9
2023-02-03T12:55:48.939Z,9.4
2023-02-03T12:56:59.192Z,10.3
2023-02-03T12:58:09.436Z,10
2023-02-03T12:59:19.680Z,9.5
2023-02-03T13:00:29.924Z,9.9
2023-02-03T13:01:40.172Z,9.7
2023-02-03T13:02:50.418Z,9.7
2023-02-03T13:04:00.658Z,10.5
2023-02-03T13:05:10.907Z,9.8
2023-02-03T13:06:21.149Z,9.2
2023-02-03T13:07:31.399Z,8.7
2023-02-03T13:10:09.071Z,10.2
2023-02-03T13:11:19.497Z,9.2
2023-02-03T13:12:28.929Z,9.9
2023-02-03T13:13:39.043Z,9.4
2023-02-03T13:14:49.157Z,8.8
2023-02-03T13:15:59.271Z,9.5
2023-02-03T13:17:09.389Z,9.4
2023-02-03T13:18:19.505Z,8.9
2023-02-03T13:19:29.629Z,8.8
2023-02-03T13:20:39.745Z,7.8
2023-02-03T13:21:49.855Z,8.4
2023-02-03T13:22:59.974Z,9.5
2023-02-03T13:24:10.088Z,9.2
2023-02-03T13:25:20.206Z,9.2
2023-02-03T13:26:30.328Z,9.3
2023-02-03T13:27:40.443Z,9
2023-02-03T13:28:50.560Z,9
2023-02-03T13:30:00.675Z,9.3
2023-02-03T13:31:10.796Z,9.5
2023-02-03T13:32:20.904Z,10.2
2023-02-03T13:33:31.022Z,9.5
2023-02-03T13:34:41.142Z,9.3
2023-02-03T13:35:51.257Z,9.8
2023-02-03T13:37:01.377Z,10.5
2023-02-03T13:38:11.490Z,9.1
2023-02-03T13:39:21.610Z,9.8
2023-02-03T13:40:31.725Z,10.3
2023-02-03T13:41:41.892Z,9.7
2023-02-03T13:42:52.054Z,9.7
2023-02-03T13:44:02.214Z,9.3
2023-02-03T13:45:12.382Z,9.5
2023-02-03T13:46:22.544Z,10.2
2023-02-03T13:47:32.709Z,9.8
2023-02-03T13:48:42.865Z,8.9
2023-02-03T13:49:53.035Z,9.7
2023-02-03T13:51:03.189Z,10.8
2023-02-03T13:52:13.353Z,10.5
2023-02-03T13:53:23.519Z,10.1
2023-02-03T13:54:33.683Z,9.4
2023-02-03T13:55:43.841Z,10.6
2023-02-03T13:56:54.098Z,10.1
2023-02-03T13:58:04.337Z,11
2023-02-03T13:59:14.585Z,9.7
2023-02-03T14:00:24.826Z,10.8
2023-02-03T14:01:35.075Z,10.8
2023-02-03T14:02:45.319Z,10.5
2023-02-03T14:03:55.567Z,10.7
2023-02-03T14:05:05.812Z,10.5
2023-02-03T14:06:16.060Z,9.8
2023-02-03T14:07:26.297Z,10.3
2023-02-03T14:08:36.546Z,10.2
2023-02-03T14:09:46.791Z,11.4
2023-02-03T14:10:57.035Z,10.7
2023-02-03T14:12:07.474Z,10.5
2023-02-03T14:13:44.014Z,11.2
2023-02-03T14:14:53.446Z,12.1
2023-02-03T14:16:03.560Z,11.5
2023-02-03T14:17:13.675Z,11
2023-02-03T14:18:23.792Z,11.7
2023-02-03T14:19:33.905Z,10.2
2023-02-03T14:20:44.027Z,11.8
2023-02-03T14:21:54.141Z,11.4
2023-02-03T14:23:04.257Z,11.3
2023-02-03T14:24:14.374Z,10.3
2023-02-03T14:25:24.490Z,11.8
2023-02-03T14:26:34.610Z,12.4
2023-02-03T14:27:44.730Z,10.8
2023-02-03T14:28:54.846Z,10.9
2023-02-03T14:30:04.960Z,10.9
2023-02-03T14:31:15.074Z,10.1
2023-02-03T14:32:25.200Z,11
2023-02-03T14:33:35.306Z,10.5
2023-02-03T14:34:45.422Z,11
2023-02-03T14:35:55.543Z,10.6
2023-02-03T14:37:05.658Z,10.7
2023-02-03T14:38:15.775Z,10.9
2023-02-03T14:39:25.895Z,11.6
2023-02-03T14:40:36.009Z,10.5
2023-02-03T14:41:46.128Z,10.7
2023-02-03T14:42:56.246Z,10.2
2023-02-03T14:44:06.406Z,11.1
2023-02-03T14:45:16.576Z,11.4
2023-02-03T14:46:26.733Z,10.5
2023-02-03T14:47:36.904Z,10.6
2023-02-03T14:48:47.060Z,11.8
2023-02-03T14:49:57.228Z,10.7
2023-02-03T14:51:07.391Z,11.2
2023-02-03T14:52:17.552Z,11.4
2023-02-03T14:53:27.719Z,11.7
2023-02-03T14:54:37.875Z,11.7
2023-02-03T14:55:48.041Z,11.8
2023-02-03T14:56:58.204Z,10.5
2023-02-03T14:58:08.363Z,9.9
2023-02-03T14:59:18.618Z,10.7
2023-02-03T15:00:28.859Z,10
2023-02-03T15:01:39.106Z,11.3
2023-02-03T15:02:49.357Z,10.4
2023-02-03T15:03:59.600Z,10.9
2023-02-03T15:05:09.838Z,10.9
2023-02-03T15:06:20.085Z,11.3
2023-02-03T15:07:30.334Z,10.6
2023-02-03T15:08:40.577Z,10.9
2023-02-03T15:09:50.827Z,10.7
2023-02-03T15:11:01.073Z,11.3
2023-02-03T15:12:11.317Z,11.7
2023-02-03T15:13:21.563Z,11.1
2023-02-03T15:14:31.994Z,11.4
2023-02-03T15:16:08.274Z,11.2
2023-02-03T15:17:18.435Z,10.9
2023-02-03T15:18:28.605Z,11.5
2023-02-03T15:19:38.767Z,10.8
2023-02-03T15:20:48.929Z,11.5
2023-02-03T15:21:59.093Z,12
2023-02-03T15:23:09.256Z,12.1
2023-02-03T15:24:19.413Z,11.7
2023-02-03T15:25:29.581Z,10.5
2023-02-03T15:26:39.737Z,10.5
2023-02-03T15:27:49.901Z,11.8
2023-02-03T15:29:00.063Z,11.5
2023-02-03T15:30:10.227Z,10.3
2023-02-03T15:31:20.389Z,11.8
2023-02-03T15:32:30.560Z,11.4
2023-02-03T15:33:40.718Z,10.3
2023-02-03T15:34:50.884Z,11.8
2023-02-03T15:36:01.040Z,11.8
2023-02-03T15:37:11.207Z,12.1
2023-02-03T15:38:21.370Z,11.2
2023-02-03T15:39:31.530Z,10.2
2023-02-03T15:40:41.698Z,11
2023-02-03T15:41:51.856Z,11.4
2023-02-03T15:43:02.024Z,10.6
2023-02-03T15:44:12.186Z,11.6
2023-02-03T15:45:22.436Z,12.9
2023-02-03T15:46:32.679Z,10.7
2023-02-03T15:47:42.927Z,11
2023-02-03T15:48:53.167Z,11.9
2023-02-03T15:50:03.413Z,11.4
2023-02-03T15:51:13.665Z,11.3
2023-02-03T15:52:23.905Z,12
2023-02-03T15:53:34.155Z,11.4
2023-02-03T15:54:44.396Z,10.3
2023-02-03T15:55:54.638Z,10.8
2023-02-03T15:57:04.884Z,10.3
2023-02-03T15:58:15.128Z,10.8
2023-02-03T15:59:25.382Z,11.8
2023-02-03T16:00:35.812Z,11.2
2023-02-03T16:01:45.245Z,11.6
2023-02-03T16:02:55.356Z,11.9
2023-02-03T16:04:05.470Z,12.2
2023-02-03T16:05:15.596Z,12
2023-02-03T16:06:25.706Z,11.1
2023-02-03T16:07:35.821Z,11.4
2023-02-03T16:08:45.938Z,12.1
2023-02-03T16:09:56.056Z,12
2023-02-03T16:11:06.173Z,12
2023-02-03T16:12:16.289Z,12.7
2023-02-03T16:13:26.406Z,11.8
2023-02-03T16:14:36.529Z,12.2
2023-02-03T16:15:46.638Z,11.9
2023-02-03T16:16:56.758Z,11.6
2023-02-03T16:18:06.871Z,12
2023-02-03T16:19:16.990Z,12.6
2023-02-03T16:20:27.104Z,12
2023-02-03T16:21:37.224Z,11.8
2023-02-03T16:22:47.347Z,11.2
2023-02-03T16:23:57.460Z,12.4
2023-02-03T16:25:07.582Z,10.7
2023-02-03T16:26:17.697Z,12.2
2023-02-03T16:27:27.808Z,11.5
2023-02-03T16:28:37.924Z,12
2023-02-03T16:29:48.040Z,12.6
2023-02-03T16:30:58.214Z,12.9
2023-02-03T16:32:08.372Z,12
2023-02-03T16:33:18.537Z,11.7
2023-02-03T16:34:28.700Z,11.4
2023-02-03T16:35:38.866Z,12.2